sensor_id;sensor_type;location;lat;lon;timestamp;P1;durP1;ratioP1;P2;durP2;ratioP2
2624;SDS011;1322;53.256;10.386;2023-02-28T00:00:20;7.17;;;4.23;;
2624;SDS011;1322;53.256;10.386;2023-02-28T00:02:47;5.90;;;3.90;;
2624;SDS011;1322;53.256;10.386;2023-02-28T00:05:13;4.47;;;3.20;;
2624;SDS011;1322;53.256;10.386;2023-02-28T00:07:41;5.70;;;4.10;;
2624;SDS011;1322;53.256;10.386;2023-02-28T00:10:08;4.00;;;3.60;;
2624;SDS011;1322;53.256;10.386;2023-02-28T00:12:35;9.77;;;4.60;;
2624;SDS011;1322;53.256;10.386;2023-02-28T00:15:02;4.67;;;3.63;;
2624;SDS011;1322;53.256;10.386;2023-02-28T00:17:30;5.90;;;3.73;;
2624;SDS011;1322;53.256;10.386;2023-02-28T00:19:56;5.30;;;3.37;;
2624;SDS011;1322;53.256;10.386;2023-02-28T00:22:21;7.20;;;3.27;;
2624;SDS011;1322;53.256;10.386;2023-02-28T00:24:47;6.70;;;4.53;;
2624;SDS011;1322;53.256;10.386;2023-02-28T00:27:13;5.60;;;3.93;;
2624;SDS011;1322;53.256;10.386;2023-02-28T00:29:39;7.20;;;4.10;;
2624;SDS011;1322;53.256;10.386;2023-02-28T00:32:05;7.07;;;3.73;;
2624;SDS011;1322;53.256;10.386;2023-02-28T00:34:31;7.53;;;4.03;;
2624;SDS011;1322;53.256;10.386;2023-02-28T00:37:02;9.40;;;3.70;;
2624;SDS011;1322;53.256;10.386;2023-02-28T00:39:33;4.63;;;3.53;;
2624;SDS011;1322;53.256;10.386;2023-02-28T00:42:00;5.13;;;3.80;;
2624;SDS011;1322;53.256;10.386;2023-02-28T00:44:25;7.77;;;4.13;;
2624;SDS011;1322;53.256;10.386;2023-02-28T00:46:51;7.03;;;4.23;;
2624;SDS011;1322;53.256;10.386;2023-02-28T00:49:18;5.30;;;3.47;;
2624;SDS011;1322;53.256;10.386;2023-02-28T00:51:45;6.70;;;4.70;;
2624;SDS011;1322;53.256;10.386;2023-02-28T00:54:11;4.50;;;3.73;;
2624;SDS011;1322;53.256;10.386;2023-02-28T00:56:36;7.93;;;5.00;;
2624;SDS011;1322;53.256;10.386;2023-02-28T00:59:02;4.73;;;3.83;;
2624;SDS011;1322;53.256;10.386;2023-02-28T01:01:28;7.27;;;4.57;;
2624;SDS011;1322;53.256;10.386;2023-02-28T01:03:53;5.00;;;3.97;;
2624;SDS011;1322;53.256;10.386;2023-02-28T01:06:19;8.50;;;4.73;;
2624;SDS011;1322;53.256;10.386;2023-02-28T01:08:44;6.07;;;3.60;;
2624;SDS011;1322;53.256;10.386;2023-02-28T01:11:10;6.50;;;3.80;;
2624;SDS011;1322;53.256;10.386;2023-02-28T01:13:40;6.33;;;3.50;;
2624;SDS011;1322;53.256;10.386;2023-02-28T01:16:06;7.50;;;4.20;;
2624;SDS011;1322;53.256;10.386;2023-02-28T01:18:32;5.93;;;4.20;;
2624;SDS011;1322;53.256;10.386;2023-02-28T01:20:58;11.43;;;4.30;;
2624;SDS011;1322;53.256;10.386;2023-02-28T01:23:28;6.70;;;3.60;;
2624;SDS011;1322;53.256;10.386;2023-02-28T01:25:53;5.80;;;4.00;;
2624;SDS011;1322;53.256;10.386;2023-02-28T01:28:19;5.43;;;3.93;;
2624;SDS011;1322;53.256;10.386;2023-02-28T01:30:48;5.20;;;3.73;;
2624;SDS011;1322;53.256;10.386;2023-02-28T01:33:14;8.77;;;4.40;;
2624;SDS011;1322;53.256;10.386;2023-02-28T01:35:40;6.93;;;4.27;;
2624;SDS011;1322;53.256;10.386;2023-02-28T01:38:06;5.17;;;4.47;;
2624;SDS011;1322;53.256;10.386;2023-02-28T01:40:32;6.83;;;4.03;;
2624;SDS011;1322;53.256;10.386;2023-02-28T01:42:57;4.97;;;3.90;;
2624;SDS011;1322;53.256;10.386;2023-02-28T01:45:27;6.70;;;3.60;;
2624;SDS011;1322;53.256;10.386;2023-02-28T01:47:54;6.80;;;4.70;;
2624;SDS011;1322;53.256;10.386;2023-02-28T01:50:25;6.00;;;5.37;;
2624;SDS011;1322;53.256;10.386;2023-02-28T01:52:55;7.43;;;4.47;;
2624;SDS011;1322;53.256;10.386;2023-02-28T01:55:24;8.23;;;5.83;;
2624;SDS011;1322;53.256;10.386;2023-02-28T01:57:55;7.27;;;6.27;;
2624;SDS011;1322;53.256;10.386;2023-02-28T02:00:23;5.97;;;4.17;;
2624;SDS011;1322;53.256;10.386;2023-02-28T02:02:53;8.83;;;5.40;;
2624;SDS011;1322;53.256;10.386;2023-02-28T02:05:23;6.77;;;4.73;;
2624;SDS011;1322;53.256;10.386;2023-02-28T02:07:56;7.73;;;4.60;;
2624;SDS011;1322;53.256;10.386;2023-02-28T02:10:33;8.73;;;4.97;;
2624;SDS011;1322;53.256;10.386;2023-02-28T02:13:12;9.10;;;4.70;;
2624;SDS011;1322;53.256;10.386;2023-02-28T02:40:29;6.77;;;5.10;;
2624;SDS011;1322;53.256;10.386;2023-02-28T02:43:01;7.50;;;4.50;;
2624;SDS011;1322;53.256;10.386;2023-02-28T02:48:01;9.70;;;4.77;;
2624;SDS011;1322;53.256;10.386;2023-02-28T02:50:31;4.87;;;3.47;;
2624;SDS011;1322;53.256;10.386;2023-02-28T02:53:02;4.33;;;3.37;;
2624;SDS011;1322;53.256;10.386;2023-02-28T02:55:31;5.43;;;4.30;;
2624;SDS011;1322;53.256;10.386;2023-02-28T02:58:02;4.80;;;3.90;;
2624;SDS011;1322;53.256;10.386;2023-02-28T03:00:33;8.20;;;4.37;;
2624;SDS011;1322;53.256;10.386;2023-02-28T03:03:08;5.00;;;3.93;;
2624;SDS011;1322;53.256;10.386;2023-02-28T03:05:39;6.73;;;4.57;;
2624;SDS011;1322;53.256;10.386;2023-02-28T03:08:09;8.03;;;4.20;;
2624;SDS011;1322;53.256;10.386;2023-02-28T03:10:37;7.57;;;3.93;;
2624;SDS011;1322;53.256;10.386;2023-02-28T03:15:58;7.67;;;4.20;;
2624;SDS011;1322;53.256;10.386;2023-02-28T03:18:42;4.87;;;3.90;;
2624;SDS011;1322;53.256;10.386;2023-02-28T03:21:15;6.67;;;4.43;;
2624;SDS011;1322;53.256;10.386;2023-02-28T03:26:29;6.70;;;4.20;;
2624;SDS011;1322;53.256;10.386;2023-02-28T03:29:15;6.30;;;3.80;;
2624;SDS011;1322;53.256;10.386;2023-02-28T03:31:49;4.03;;;3.60;;
2624;SDS011;1322;53.256;10.386;2023-02-28T03:34:29;6.13;;;4.00;;
2624;SDS011;1322;53.256;10.386;2023-02-28T03:36:57;7.93;;;4.17;;
2624;SDS011;1322;53.256;10.386;2023-02-28T03:39:28;10.73;;;3.80;;
2624;SDS011;1322;53.256;10.386;2023-02-28T03:42:01;5.77;;;4.07;;
2624;SDS011;1322;53.256;10.386;2023-02-28T03:47:05;4.90;;;3.90;;
2624;SDS011;1322;53.256;10.386;2023-02-28T03:49:54;13.17;;;3.53;;
2624;SDS011;1322;53.256;10.386;2023-02-28T03:52:44;4.73;;;3.83;;
2624;SDS011;1322;53.256;10.386;2023-02-28T03:55:15;5.53;;;3.67;;
2624;SDS011;1322;53.256;10.386;2023-02-28T04:00:35;4.20;;;3.60;;
2624;SDS011;1322;53.256;10.386;2023-02-28T04:03:05;6.40;;;3.50;;
2624;SDS011;1322;53.256;10.386;2023-02-28T04:05:31;4.53;;;3.20;;
2624;SDS011;1322;53.256;10.386;2023-02-28T04:08:04;5.90;;;4.03;;
2624;SDS011;1322;53.256;10.386;2023-02-28T04:10:30;7.80;;;4.33;;
2624;SDS011;1322;53.256;10.386;2023-02-28T04:12:56;6.07;;;3.50;;
2624;SDS011;1322;53.256;10.386;2023-02-28T04:15:22;4.33;;;3.37;;
2624;SDS011;1322;53.256;10.386;2023-02-28T04:17:49;6.33;;;3.60;;
2624;SDS011;1322;53.256;10.386;2023-02-28T04:20:15;4.70;;;3.40;;
2624;SDS011;1322;53.256;10.386;2023-02-28T04:22:41;7.57;;;3.77;;
2624;SDS011;1322;53.256;10.386;2023-02-28T04:25:06;6.90;;;3.40;;
2624;SDS011;1322;53.256;10.386;2023-02-28T04:27:32;5.20;;;4.67;;
2624;SDS011;1322;53.256;10.386;2023-02-28T04:29:58;6.67;;;3.53;;
2624;SDS011;1322;53.256;10.386;2023-02-28T04:32:24;6.30;;;4.17;;
2624;SDS011;1322;53.256;10.386;2023-02-28T04:34:50;9.33;;;4.70;;
2624;SDS011;1322;53.256;10.386;2023-02-28T04:37:15;9.90;;;4.90;;
2624;SDS011;1322;53.256;10.386;2023-02-28T04:39:41;7.10;;;4.53;;
2624;SDS011;1322;53.256;10.386;2023-02-28T04:42:08;10.10;;;4.77;;
2624;SDS011;1322;53.256;10.386;2023-02-28T04:44:33;5.63;;;4.27;;
2624;SDS011;1322;53.256;10.386;2023-02-28T04:46:59;7.40;;;4.47;;
2624;SDS011;1322;53.256;10.386;2023-02-28T04:49:25;8.73;;;5.40;;
2624;SDS011;1322;53.256;10.386;2023-02-28T04:51:50;4.70;;;3.50;;
2624;SDS011;1322;53.256;10.386;2023-02-28T04:54:17;7.33;;;4.83;;
2624;SDS011;1322;53.256;10.386;2023-02-28T04:56:43;8.10;;;4.50;;
2624;SDS011;1322;53.256;10.386;2023-02-28T04:59:09;8.90;;;4.93;;
2624;SDS011;1322;53.256;10.386;2023-02-28T05:01:34;5.60;;;4.37;;
2624;SDS011;1322;53.256;10.386;2023-02-28T05:04:01;6.20;;;4.13;;
2624;SDS011;1322;53.256;10.386;2023-02-28T05:06:29;4.90;;;3.80;;
2624;SDS011;1322;53.256;10.386;2023-02-28T05:08:56;7.37;;;4.87;;
2624;SDS011;1322;53.256;10.386;2023-02-28T05:11:26;5.07;;;3.80;;
2624;SDS011;1322;53.256;10.386;2023-02-28T05:13:59;5.00;;;3.90;;
2624;SDS011;1322;53.256;10.386;2023-02-28T05:16:30;4.83;;;3.57;;
2624;SDS011;1322;53.256;10.386;2023-02-28T05:18:56;6.70;;;4.00;;
2624;SDS011;1322;53.256;10.386;2023-02-28T05:21:26;10.77;;;4.97;;
2624;SDS011;1322;53.256;10.386;2023-02-28T05:23:57;7.47;;;4.10;;
2624;SDS011;1322;53.256;10.386;2023-02-28T05:26:24;5.57;;;3.70;;
2624;SDS011;1322;53.256;10.386;2023-02-28T05:28:51;5.73;;;3.87;;
2624;SDS011;1322;53.256;10.386;2023-02-28T05:31:17;8.10;;;4.93;;
2624;SDS011;1322;53.256;10.386;2023-02-28T05:33:43;9.83;;;4.33;;
2624;SDS011;1322;53.256;10.386;2023-02-28T05:36:09;6.70;;;4.27;;
2624;SDS011;1322;53.256;10.386;2023-02-28T05:38:35;6.37;;;3.83;;
2624;SDS011;1322;53.256;10.386;2023-02-28T05:41:04;7.57;;;4.00;;
2624;SDS011;1322;53.256;10.386;2023-02-28T05:43:34;5.70;;;3.47;;
2624;SDS011;1322;53.256;10.386;2023-02-28T05:46:01;5.40;;;3.40;;
2624;SDS011;1322;53.256;10.386;2023-02-28T05:48:28;5.50;;;4.23;;
2624;SDS011;1322;53.256;10.386;2023-02-28T05:50:54;4.87;;;4.37;;
2624;SDS011;1322;53.256;10.386;2023-02-28T05:53:21;6.00;;;3.57;;
2624;SDS011;1322;53.256;10.386;2023-02-28T05:55:47;5.43;;;3.87;;
2624;SDS011;1322;53.256;10.386;2023-02-28T05:58:13;6.60;;;3.77;;
2624;SDS011;1322;53.256;10.386;2023-02-28T06:00:38;5.73;;;4.23;;
2624;SDS011;1322;53.256;10.386;2023-02-28T06:03:04;6.90;;;4.40;;
2624;SDS011;1322;53.256;10.386;2023-02-28T06:05:29;4.90;;;4.20;;
2624;SDS011;1322;53.256;10.386;2023-02-28T06:07:55;6.40;;;4.67;;
2624;SDS011;1322;53.256;10.386;2023-02-28T06:10:21;7.93;;;5.40;;
2624;SDS011;1322;53.256;10.386;2023-02-28T06:12:46;6.27;;;4.60;;
2624;SDS011;1322;53.256;10.386;2023-02-28T06:15:13;9.50;;;4.60;;
2624;SDS011;1322;53.256;10.386;2023-02-28T06:17:40;5.53;;;4.23;;
2624;SDS011;1322;53.256;10.386;2023-02-28T06:20:06;7.73;;;4.80;;
2624;SDS011;1322;53.256;10.386;2023-02-28T06:22:33;6.33;;;4.53;;
2624;SDS011;1322;53.256;10.386;2023-02-28T06:25:00;9.30;;;5.33;;
2624;SDS011;1322;53.256;10.386;2023-02-28T06:27:26;7.63;;;4.87;;
2624;SDS011;1322;53.256;10.386;2023-02-28T06:29:53;6.60;;;4.53;;
2624;SDS011;1322;53.256;10.386;2023-02-28T06:32:20;7.63;;;4.60;;
2624;SDS011;1322;53.256;10.386;2023-02-28T06:34:46;6.23;;;4.00;;
2624;SDS011;1322;53.256;10.386;2023-02-28T06:37:12;8.60;;;4.40;;
2624;SDS011;1322;53.256;10.386;2023-02-28T06:39:37;12.37;;;5.40;;
2624;SDS011;1322;53.256;10.386;2023-02-28T06:42:04;6.97;;;4.67;;
2624;SDS011;1322;53.256;10.386;2023-02-28T06:44:29;6.40;;;4.90;;
2624;SDS011;1322;53.256;10.386;2023-02-28T06:47:00;16.63;;;4.47;;
2624;SDS011;1322;53.256;10.386;2023-02-28T06:49:28;6.43;;;4.70;;
2624;SDS011;1322;53.256;10.386;2023-02-28T06:51:54;11.90;;;5.27;;
2624;SDS011;1322;53.256;10.386;2023-02-28T06:54:20;6.90;;;5.00;;
2624;SDS011;1322;53.256;10.386;2023-02-28T06:56:45;7.33;;;4.40;;
2624;SDS011;1322;53.256;10.386;2023-02-28T06:59:12;6.07;;;4.83;;
2624;SDS011;1322;53.256;10.386;2023-02-28T07:01:38;9.13;;;5.63;;
2624;SDS011;1322;53.256;10.386;2023-02-28T07:04:04;20.10;;;6.50;;
2624;SDS011;1322;53.256;10.386;2023-02-28T07:06:30;8.47;;;5.63;;
2624;SDS011;1322;53.256;10.386;2023-02-28T07:08:56;13.97;;;6.60;;
2624;SDS011;1322;53.256;10.386;2023-02-28T07:11:23;9.03;;;6.67;;
2624;SDS011;1322;53.256;10.386;2023-02-28T07:13:50;9.60;;;6.03;;
2624;SDS011;1322;53.256;10.386;2023-02-28T07:16:16;11.63;;;6.63;;
2624;SDS011;1322;53.256;10.386;2023-02-28T07:18:42;7.23;;;5.73;;
2624;SDS011;1322;53.256;10.386;2023-02-28T07:21:09;9.43;;;5.60;;
2624;SDS011;1322;53.256;10.386;2023-02-28T07:23:35;7.93;;;6.07;;
2624;SDS011;1322;53.256;10.386;2023-02-28T07:26:03;12.97;;;6.40;;
2624;SDS011;1322;53.256;10.386;2023-02-28T07:28:29;6.73;;;5.07;;
2624;SDS011;1322;53.256;10.386;2023-02-28T07:30:55;7.00;;;4.70;;
2624;SDS011;1322;53.256;10.386;2023-02-28T07:33:21;9.10;;;5.27;;
2624;SDS011;1322;53.256;10.386;2023-02-28T07:35:46;8.70;;;4.57;;
2624;SDS011;1322;53.256;10.386;2023-02-28T07:38:12;9.30;;;5.70;;
2624;SDS011;1322;53.256;10.386;2023-02-28T07:40:38;8.80;;;5.43;;
2624;SDS011;1322;53.256;10.386;2023-02-28T07:43:04;11.57;;;6.03;;
2624;SDS011;1322;53.256;10.386;2023-02-28T07:45:30;9.23;;;5.80;;
2624;SDS011;1322;53.256;10.386;2023-02-28T07:47:57;5.27;;;4.60;;
2624;SDS011;1322;53.256;10.386;2023-02-28T07:50:23;8.50;;;5.60;;
2624;SDS011;1322;53.256;10.386;2023-02-28T07:52:49;6.93;;;5.27;;
2624;SDS011;1322;53.256;10.386;2023-02-28T07:55:14;8.90;;;6.00;;
2624;SDS011;1322;53.256;10.386;2023-02-28T07:57:41;10.50;;;5.40;;
2624;SDS011;1322;53.256;10.386;2023-02-28T08:00:08;7.50;;;5.97;;
2624;SDS011;1322;53.256;10.386;2023-02-28T08:02:35;7.87;;;5.67;;
2624;SDS011;1322;53.256;10.386;2023-02-28T08:05:01;6.40;;;4.57;;
2624;SDS011;1322;53.256;10.386;2023-02-28T08:07:27;7.10;;;6.33;;
2624;SDS011;1322;53.256;10.386;2023-02-28T08:09:52;8.53;;;5.83;;
2624;SDS011;1322;53.256;10.386;2023-02-28T08:12:18;7.13;;;5.10;;
2624;SDS011;1322;53.256;10.386;2023-02-28T08:14:44;8.67;;;5.27;;
2624;SDS011;1322;53.256;10.386;2023-02-28T08:17:10;12.80;;;4.83;;
2624;SDS011;1322;53.256;10.386;2023-02-28T08:19:36;8.10;;;5.00;;
2624;SDS011;1322;53.256;10.386;2023-02-28T08:22:01;7.60;;;5.80;;
2624;SDS011;1322;53.256;10.386;2023-02-28T08:24:27;7.50;;;5.60;;
2624;SDS011;1322;53.256;10.386;2023-02-28T08:26:53;6.03;;;5.00;;
2624;SDS011;1322;53.256;10.386;2023-02-28T08:29:18;9.63;;;5.47;;
2624;SDS011;1322;53.256;10.386;2023-02-28T08:31:44;8.03;;;5.57;;
2624;SDS011;1322;53.256;10.386;2023-02-28T08:34:11;8.83;;;5.37;;
2624;SDS011;1322;53.256;10.386;2023-02-28T08:36:38;8.57;;;5.03;;
2624;SDS011;1322;53.256;10.386;2023-02-28T08:39:04;8.43;;;5.03;;
2624;SDS011;1322;53.256;10.386;2023-02-28T08:41:30;8.83;;;5.13;;
2624;SDS011;1322;53.256;10.386;2023-02-28T08:43:56;7.20;;;5.33;;
2624;SDS011;1322;53.256;10.386;2023-02-28T08:46:22;6.10;;;4.60;;
2624;SDS011;1322;53.256;10.386;2023-02-28T08:48:51;8.00;;;4.63;;
2624;SDS011;1322;53.256;10.386;2023-02-28T08:51:19;6.53;;;4.67;;
2624;SDS011;1322;53.256;10.386;2023-02-28T08:53:54;7.20;;;4.57;;
2624;SDS011;1322;53.256;10.386;2023-02-28T08:56:22;7.03;;;5.30;;
2624;SDS011;1322;53.256;10.386;2023-02-28T08:58:49;8.10;;;4.60;;
2624;SDS011;1322;53.256;10.386;2023-02-28T09:01:19;6.23;;;4.40;;
2624;SDS011;1322;53.256;10.386;2023-02-28T09:03:48;11.10;;;5.20;;
2624;SDS011;1322;53.256;10.386;2023-02-28T09:06:15;4.93;;;4.20;;
2624;SDS011;1322;53.256;10.386;2023-02-28T09:08:42;6.70;;;4.83;;
2624;SDS011;1322;53.256;10.386;2023-02-28T09:11:08;5.87;;;4.50;;
2624;SDS011;1322;53.256;10.386;2023-02-28T09:13:35;8.50;;;4.30;;
2624;SDS011;1322;53.256;10.386;2023-02-28T09:16:02;5.83;;;4.40;;
2624;SDS011;1322;53.256;10.386;2023-02-28T09:18:29;5.40;;;3.93;;
2624;SDS011;1322;53.256;10.386;2023-02-28T09:20:55;5.23;;;3.90;;
2624;SDS011;1322;53.256;10.386;2023-02-28T09:23:22;5.80;;;3.50;;
2624;SDS011;1322;53.256;10.386;2023-02-28T09:25:49;7.47;;;3.73;;
2624;SDS011;1322;53.256;10.386;2023-02-28T09:28:17;8.13;;;3.47;;
2624;SDS011;1322;53.256;10.386;2023-02-28T09:30:50;7.23;;;3.40;;
2624;SDS011;1322;53.256;10.386;2023-02-28T09:33:18;5.33;;;3.60;;
2624;SDS011;1322;53.256;10.386;2023-02-28T09:35:46;7.07;;;4.10;;
2624;SDS011;1322;53.256;10.386;2023-02-28T09:38:12;8.27;;;3.70;;
2624;SDS011;1322;53.256;10.386;2023-02-28T09:40:46;10.10;;;4.90;;
2624;SDS011;1322;53.256;10.386;2023-02-28T09:43:17;6.83;;;4.80;;
2624;SDS011;1322;53.256;10.386;2023-02-28T09:45:48;4.90;;;3.93;;
2624;SDS011;1322;53.256;10.386;2023-02-28T09:48:25;10.30;;;4.30;;
2624;SDS011;1322;53.256;10.386;2023-02-28T09:51:05;4.83;;;3.20;;
2624;SDS011;1322;53.256;10.386;2023-02-28T09:53:40;3.53;;;2.80;;
2624;SDS011;1322;53.256;10.386;2023-02-28T09:56:18;6.60;;;3.50;;
2624;SDS011;1322;53.256;10.386;2023-02-28T09:59:01;3.60;;;2.93;;
2624;SDS011;1322;53.256;10.386;2023-02-28T10:07:01;4.03;;;2.40;;
2624;SDS011;1322;53.256;10.386;2023-02-28T10:09:42;3.47;;;2.90;;
2624;SDS011;1322;53.256;10.386;2023-02-28T10:12:09;2.90;;;2.10;;
2624;SDS011;1322;53.256;10.386;2023-02-28T10:14:37;3.50;;;2.23;;
2624;SDS011;1322;53.256;10.386;2023-02-28T10:17:11;2.70;;;1.87;;
2624;SDS011;1322;53.256;10.386;2023-02-28T10:19:47;3.13;;;1.40;;
2624;SDS011;1322;53.256;10.386;2023-02-28T10:22:25;1.70;;;1.60;;
2624;SDS011;1322;53.256;10.386;2023-02-28T10:24:59;2.50;;;1.57;;
2624;SDS011;1322;53.256;10.386;2023-02-28T10:27:31;1.90;;;1.70;;
2624;SDS011;1322;53.256;10.386;2023-02-28T10:29:58;9.20;;;3.03;;
2624;SDS011;1322;53.256;10.386;2023-02-28T10:37:46;3.13;;;2.37;;
2624;SDS011;1322;53.256;10.386;2023-02-28T10:42:54;4.03;;;2.10;;
2624;SDS011;1322;53.256;10.386;2023-02-28T10:45:23;5.57;;;2.60;;
2624;SDS011;1322;53.256;10.386;2023-02-28T10:47:53;6.37;;;1.97;;
2624;SDS011;1322;53.256;10.386;2023-02-28T10:52:54;2.87;;;2.00;;
2624;SDS011;1322;53.256;10.386;2023-02-28T10:55:30;6.03;;;1.60;;
2624;SDS011;1322;53.256;10.386;2023-02-28T10:57:56;2.10;;;1.90;;
2624;SDS011;1322;53.256;10.386;2023-02-28T11:00:23;1.90;;;1.67;;
2624;SDS011;1322;53.256;10.386;2023-02-28T11:02:52;6.80;;;2.40;;
2624;SDS011;1322;53.256;10.386;2023-02-28T11:07:51;2.73;;;2.27;;
2624;SDS011;1322;53.256;10.386;2023-02-28T11:10:25;4.53;;;2.23;;
2624;SDS011;1322;53.256;10.386;2023-02-28T11:12:54;3.57;;;2.63;;
2624;SDS011;1322;53.256;10.386;2023-02-28T11:17:56;3.60;;;2.50;;
2624;SDS011;1322;53.256;10.386;2023-02-28T11:20:25;3.40;;;2.43;;
2624;SDS011;1322;53.256;10.386;2023-02-28T11:22:54;4.67;;;2.50;;
2624;SDS011;1322;53.256;10.386;2023-02-28T11:25:29;5.07;;;2.57;;
2624;SDS011;1322;53.256;10.386;2023-02-28T11:27:58;9.17;;;2.73;;
2624;SDS011;1322;53.256;10.386;2023-02-28T11:30:35;4.77;;;2.83;;
2624;SDS011;1322;53.256;10.386;2023-02-28T11:35:59;3.60;;;2.37;;
2624;SDS011;1322;53.256;10.386;2023-02-28T11:38:28;3.13;;;2.43;;
2624;SDS011;1322;53.256;10.386;2023-02-28T11:51:54;2.63;;;2.43;;
2624;SDS011;1322;53.256;10.386;2023-02-28T12:09:40;1.93;;;1.40;;
2624;SDS011;1322;53.256;10.386;2023-02-28T12:15:24;2.40;;;1.93;;
2624;SDS011;1322;53.256;10.386;2023-02-28T12:18:14;2.13;;;1.70;;
2624;SDS011;1322;53.256;10.386;2023-02-28T12:21:19;2.93;;;1.80;;
2624;SDS011;1322;53.256;10.386;2023-02-28T12:23:56;3.07;;;1.50;;
2624;SDS011;1322;53.256;10.386;2023-02-28T12:26:43;1.60;;;1.47;;
2624;SDS011;1322;53.256;10.386;2023-02-28T12:29:21;4.67;;;2.03;;
2624;SDS011;1322;53.256;10.386;2023-02-28T12:31:56;4.90;;;1.50;;
2624;SDS011;1322;53.256;10.386;2023-02-28T12:34:52;2.27;;;1.70;;
2624;SDS011;1322;53.256;10.386;2023-02-28T12:40:15;2.30;;;1.60;;
2624;SDS011;1322;53.256;10.386;2023-02-28T12:42:51;3.30;;;1.53;;
2624;SDS011;1322;53.256;10.386;2023-02-28T12:45:25;3.30;;;1.60;;
2624;SDS011;1322;53.256;10.386;2023-02-28T12:48:05;1.80;;;1.30;;
2624;SDS011;1322;53.256;10.386;2023-02-28T12:50:35;3.47;;;1.67;;
2624;SDS011;1322;53.256;10.386;2023-02-28T12:53:03;2.10;;;1.53;;
2624;SDS011;1322;53.256;10.386;2023-02-28T12:55:49;2.80;;;2.03;;
2624;SDS011;1322;53.256;10.386;2023-02-28T12:58:45;2.63;;;1.53;;
2624;SDS011;1322;53.256;10.386;2023-02-28T13:07:36;3.57;;;1.53;;
2624;SDS011;1322;53.256;10.386;2023-02-28T13:10:11;2.60;;;1.60;;
2624;SDS011;1322;53.256;10.386;2023-02-28T13:12:46;1.90;;;1.50;;
2624;SDS011;1322;53.256;10.386;2023-02-28T13:15:23;3.80;;;2.17;;
2624;SDS011;1322;53.256;10.386;2023-02-28T13:17:53;1.70;;;1.50;;
2624;SDS011;1322;53.256;10.386;2023-02-28T13:20:24;2.80;;;1.60;;
2624;SDS011;1322;53.256;10.386;2023-02-28T13:22:56;2.20;;;1.50;;
2624;SDS011;1322;53.256;10.386;2023-02-28T13:27:48;2.40;;;1.80;;
2624;SDS011;1322;53.256;10.386;2023-02-28T13:35:48;3.23;;;1.77;;
2624;SDS011;1322;53.256;10.386;2023-02-28T13:38:32;2.30;;;1.57;;
2624;SDS011;1322;53.256;10.386;2023-02-28T13:44:12;2.20;;;1.73;;
2624;SDS011;1322;53.256;10.386;2023-02-28T13:54:56;2.50;;;1.90;;
2624;SDS011;1322;53.256;10.386;2023-02-28T13:57:45;4.57;;;1.87;;
2624;SDS011;1322;53.256;10.386;2023-02-28T14:05:41;2.07;;;1.40;;
2624;SDS011;1322;53.256;10.386;2023-02-28T14:08:11;3.43;;;1.97;;
2624;SDS011;1322;53.256;10.386;2023-02-28T14:10:46;3.90;;;2.27;;
2624;SDS011;1322;53.256;10.386;2023-02-28T14:16:10;1.93;;;1.60;;
2624;SDS011;1322;53.256;10.386;2023-02-28T14:18:42;1.77;;;1.20;;
2624;SDS011;1322;53.256;10.386;2023-02-28T14:29:57;2.67;;;1.80;;
2624;SDS011;1322;53.256;10.386;2023-02-28T14:33:03;4.33;;;1.80;;
2624;SDS011;1322;53.256;10.386;2023-02-28T14:43:55;4.27;;;1.83;;
2624;SDS011;1322;53.256;10.386;2023-02-28T14:46:23;3.60;;;1.60;;
2624;SDS011;1322;53.256;10.386;2023-02-28T14:48:52;2.37;;;1.80;;
2624;SDS011;1322;53.256;10.386;2023-02-28T14:51:21;3.80;;;2.30;;
2624;SDS011;1322;53.256;10.386;2023-02-28T14:53:50;3.17;;;2.00;;
2624;SDS011;1322;53.256;10.386;2023-02-28T14:56:22;4.57;;;2.20;;
2624;SDS011;1322;53.256;10.386;2023-02-28T14:59:02;1.97;;;1.37;;
2624;SDS011;1322;53.256;10.386;2023-02-28T15:01:28;2.63;;;1.43;;
2624;SDS011;1322;53.256;10.386;2023-02-28T15:03:58;3.87;;;1.97;;
2624;SDS011;1322;53.256;10.386;2023-02-28T15:06:26;5.87;;;3.40;;
2624;SDS011;1322;53.256;10.386;2023-02-28T15:09:08;8.10;;;4.33;;
2624;SDS011;1322;53.256;10.386;2023-02-28T15:11:44;1.83;;;1.43;;
2624;SDS011;1322;53.256;10.386;2023-02-28T15:14:16;2.97;;;1.87;;
2624;SDS011;1322;53.256;10.386;2023-02-28T15:16:48;2.10;;;1.40;;
2624;SDS011;1322;53.256;10.386;2023-02-28T15:19:21;4.87;;;1.43;;
2624;SDS011;1322;53.256;10.386;2023-02-28T15:21:51;4.17;;;1.33;;
2624;SDS011;1322;53.256;10.386;2023-02-28T15:24:35;2.13;;;1.40;;
2624;SDS011;1322;53.256;10.386;2023-02-28T15:27:05;2.67;;;1.73;;
2624;SDS011;1322;53.256;10.386;2023-02-28T15:29:46;1.80;;;1.20;;
2624;SDS011;1322;53.256;10.386;2023-02-28T15:32:26;1.63;;;1.20;;
2624;SDS011;1322;53.256;10.386;2023-02-28T15:34:54;4.80;;;2.07;;
2624;SDS011;1322;53.256;10.386;2023-02-28T15:37:37;2.37;;;1.50;;
2624;SDS011;1322;53.256;10.386;2023-02-28T15:40:38;5.27;;;1.63;;
2624;SDS011;1322;53.256;10.386;2023-02-28T15:45:55;2.30;;;1.70;;
2624;SDS011;1322;53.256;10.386;2023-02-28T15:50:53;1.63;;;1.07;;
2624;SDS011;1322;53.256;10.386;2023-02-28T15:53:22;2.33;;;1.30;;
2624;SDS011;1322;53.256;10.386;2023-02-28T15:55:54;2.97;;;1.53;;
2624;SDS011;1322;53.256;10.386;2023-02-28T15:58:23;2.00;;;1.10;;
2624;SDS011;1322;53.256;10.386;2023-02-28T16:01:06;3.30;;;1.57;;
2624;SDS011;1322;53.256;10.386;2023-02-28T16:03:45;1.80;;;1.57;;
2624;SDS011;1322;53.256;10.386;2023-02-28T16:08:42;2.00;;;1.50;;
2624;SDS011;1322;53.256;10.386;2023-02-28T16:11:09;3.30;;;1.37;;
2624;SDS011;1322;53.256;10.386;2023-02-28T16:13:35;2.17;;;1.60;;
2624;SDS011;1322;53.256;10.386;2023-02-28T16:16:02;1.83;;;1.30;;
2624;SDS011;1322;53.256;10.386;2023-02-28T16:18:28;2.10;;;1.60;;
2624;SDS011;1322;53.256;10.386;2023-02-28T16:20:54;1.90;;;1.47;;
2624;SDS011;1322;53.256;10.386;2023-02-28T16:23:19;2.87;;;1.10;;
2624;SDS011;1322;53.256;10.386;2023-02-28T16:25:45;1.67;;;1.30;;
2624;SDS011;1322;53.256;10.386;2023-02-28T16:28:21;3.13;;;1.80;;
2624;SDS011;1322;53.256;10.386;2023-02-28T16:30:54;2.87;;;1.23;;
2624;SDS011;1322;53.256;10.386;2023-02-28T16:33:20;4.07;;;2.60;;
2624;SDS011;1322;53.256;10.386;2023-02-28T16:35:46;4.33;;;2.30;;
2624;SDS011;1322;53.256;10.386;2023-02-28T16:38:11;5.50;;;2.60;;
2624;SDS011;1322;53.256;10.386;2023-02-28T16:40:37;6.27;;;2.60;;
2624;SDS011;1322;53.256;10.386;2023-02-28T16:43:36;4.17;;;2.20;;
2624;SDS011;1322;53.256;10.386;2023-02-28T16:45:57;2.53;;;1.70;;
2624;SDS011;1322;53.256;10.386;2023-02-28T16:48:24;4.53;;;2.40;;
2624;SDS011;1322;53.256;10.386;2023-02-28T16:50:50;5.80;;;3.10;;
2624;SDS011;1322;53.256;10.386;2023-02-28T16:53:16;5.37;;;3.47;;
2624;SDS011;1322;53.256;10.386;2023-02-28T16:55:43;4.07;;;2.60;;
2624;SDS011;1322;53.256;10.386;2023-02-28T16:58:11;7.23;;;3.07;;
2624;SDS011;1322;53.256;10.386;2023-02-28T17:00:39;6.80;;;3.37;;
2624;SDS011;1322;53.256;10.386;2023-02-28T17:03:07;7.10;;;3.57;;
2624;SDS011;1322;53.256;10.386;2023-02-28T17:05:43;4.47;;;2.90;;
2624;SDS011;1322;53.256;10.386;2023-02-28T17:08:09;4.77;;;2.60;;
2624;SDS011;1322;53.256;10.386;2023-02-28T17:10:35;6.03;;;3.50;;
2624;SDS011;1322;53.256;10.386;2023-02-28T17:13:01;6.50;;;3.20;;
2624;SDS011;1322;53.256;10.386;2023-02-28T17:15:26;6.23;;;3.40;;
2624;SDS011;1322;53.256;10.386;2023-02-28T17:17:52;6.70;;;3.30;;
2624;SDS011;1322;53.256;10.386;2023-02-28T17:20:19;3.30;;;2.30;;
2624;SDS011;1322;53.256;10.386;2023-02-28T17:22:50;8.30;;;2.43;;
2624;SDS011;1322;53.256;10.386;2023-02-28T17:25:15;3.80;;;2.50;;
2624;SDS011;1322;53.256;10.386;2023-02-28T17:27:42;11.27;;;5.30;;
2624;SDS011;1322;53.256;10.386;2023-02-28T17:30:13;58.43;;;33.53;;
2624;SDS011;1322;53.256;10.386;2023-02-28T17:32:41;506.30;;;318.97;;
2624;SDS011;1322;53.256;10.386;2023-02-28T17:35:06;400.03;;;267.47;;
2624;SDS011;1322;53.256;10.386;2023-02-28T17:37:33;166.50;;;120.73;;
2624;SDS011;1322;53.256;10.386;2023-02-28T17:39:58;49.63;;;37.53;;
2624;SDS011;1322;53.256;10.386;2023-02-28T17:42:24;19.80;;;14.10;;
2624;SDS011;1322;53.256;10.386;2023-02-28T17:44:49;11.30;;;8.60;;
2624;SDS011;1322;53.256;10.386;2023-02-28T17:47:15;12.30;;;9.77;;